Time;durP1;ratioP1;P1;durP2;ratioP2;P2;SDS_P1;SDS_P2;PMS_P1;PMS_P2;Temp;Humidity;BMP_temperature;BMP_pressure;BME280_temperature;BME280_humidity;BME280_pressure;Samples;Min_cycle;Max_cycle;Signal;HPM_P1;HPM_P2
2022/01/15 00:01:07;;;;;;;34.92;18.35;;;-0.70;99.90;;;-1.63;100.00;98565.78;5043039;28;20116;-38
2022/01/15 00:03:32;;;;;;;31.38;17.27;;;-0.80;99.90;;;-1.67;100.00;98556.16;5036892;28;21113;-45
2022/01/15 00:05:58;;;;;;;28.17;17.13;;;-0.80;99.90;;;-1.70;100.00;98562.13;5043217;28;20025;-45
2022/01/15 00:08:24;;;;;;;36.20;18.23;;;-0.80;99.90;;;-1.71;100.00;98557.75;5044395;28;20952;-47
2022/01/15 00:10:50;;;;;;;29.88;17.23;;;-0.80;99.90;;;-1.73;100.00;98552.53;5043730;28;20511;-43
2022/01/15 00:13:29;;;;;;;28.95;17.40;;;-0.90;99.90;;;-1.74;100.00;98548.22;5019799;28;20508;-46
2022/01/15 00:16:06;;;;;;;28.45;16.98;;;-0.80;99.90;;;-1.74;100.00;98550.81;5038515;28;20037;-46
2022/01/15 00:18:47;;;;;;;30.50;16.58;;;-0.80;99.90;;;-1.75;100.00;98546.44;5040135;28;20045;-44
2022/01/15 00:21:14;;;;;;;33.17;17.73;;;-0.90;99.90;;;-1.77;100.00;98548.13;5037648;28;20033;-46
2022/01/15 00:23:41;;;;;;;30.85;16.77;;;-0.90;99.90;;;-1.80;100.00;98542.84;5035857;28;21390;-47
2022/01/15 00:26:06;;;;;;;30.95;16.92;;;-0.90;99.90;;;-1.80;100.00;98541.97;5037311;28;20028;-43
2022/01/15 00:28:32;;;;;;;30.98;17.15;;;-0.90;99.90;;;-1.80;100.00;98541.97;5038381;28;20047;-47
2022/01/15 00:30:58;;;;;;;27.38;15.80;;;-0.90;99.90;;;-1.82;100.00;98539.34;5037124;28;21393;-46
2022/01/15 00:33:25;;;;;;;33.42;17.88;;;-0.90;99.90;;;-1.80;100.00;98540.25;5039364;28;20025;-45
2022/01/15 00:35:52;;;;;;;28.65;16.98;;;-0.90;99.90;;;-1.79;100.00;98546.34;5039439;28;20183;-44
2022/01/15 00:38:18;;;;;;;31.52;17.38;;;-0.90;99.90;;;-1.83;100.00;98539.28;5044919;28;20129;-47
2022/01/15 00:40:44;;;;;;;32.17;17.15;;;-0.90;99.90;;;-1.81;100.00;98540.22;5043216;28;20514;-46
2022/01/15 00:43:09;;;;;;;35.33;16.95;;;-0.90;99.90;;;-1.80;100.00;98536.81;5042407;28;20076;-44
2022/01/15 00:45:35;;;;;;;31.90;17.88;;;-0.90;99.90;;;-1.78;100.00;98535.13;5045875;28;20033;-44
2022/01/15 00:48:02;;;;;;;31.35;17.52;;;-0.90;99.90;;;-1.80;100.00;98531.63;5044274;28;20017;-44
2022/01/15 00:50:28;;;;;;;31.75;17.85;;;-0.90;99.90;;;-1.82;100.00;98523.81;5021625;28;20449;-44
2022/01/15 00:52:54;;;;;;;33.90;18.45;;;-0.90;99.90;;;-1.76;100.00;98533.47;5040877;28;20054;-41
2022/01/15 00:55:20;;;;;;;33.35;18.63;;;-0.90;99.90;;;-1.76;100.00;98536.94;5043154;28;20566;-47
2022/01/15 00:57:46;;;;;;;32.13;19.10;;;-0.90;99.90;;;-1.93;100.00;98512.28;5044420;28;20391;-48
2022/01/15 01:00:18;;;;;;;29.63;18.40;;;-0.90;99.90;;;-1.76;100.00;98534.38;5043107;28;20072;-42
2022/01/15 01:02:44;;;;;;;37.03;19.23;;;-0.90;99.90;;;-1.78;100.00;98528.25;5039392;28;20060;-45
2022/01/15 01:05:11;;;;;;;37.53;19.42;;;-0.90;99.90;;;-1.76;100.00;98531.78;5042479;28;20028;-45
2022/01/15 01:07:39;;;;;;;32.05;18.35;;;-0.90;99.90;;;-1.75;100.00;98530.94;5045059;28;20383;-46
2022/01/15 01:12:56;;;;;;;33.92;17.85;;;-0.80;99.90;;;-1.78;100.00;98529.97;5041807;28;20037;-45
2022/01/15 01:23:30;;;;;;;28.13;16.83;;;-0.90;99.90;;;-1.92;100.00;98525.25;5042220;28;20423;-45
2022/01/15 01:26:07;;;;;;;31.15;17.10;;;-1.00;99.90;;;-1.92;100.00;98520.09;5042439;28;20041;-46
2022/01/15 01:28:38;;;;;;;35.70;18.02;;;-1.00;99.90;;;-1.92;100.00;98516.59;5041680;28;20502;-45
2022/01/15 01:31:18;;;;;;;28.67;17.55;;;-1.00;99.90;;;-1.97;100.00;98513.91;5041621;28;20037;-44
2022/01/15 01:33:46;;;;;;;28.15;16.42;;;-1.00;99.90;;;-1.97;100.00;98518.19;5039265;28;20029;-45
2022/01/15 01:36:20;;;;;;;34.35;18.65;;;-1.00;99.90;;;-2.05;100.00;98512.78;5041823;28;20037;-44
2022/01/15 01:38:53;;;;;;;33.97;18.33;;;-1.10;99.90;;;-2.06;100.00;98513.63;5040898;28;20035;-46
2022/01/15 01:41:22;;;;;;;26.67;16.75;;;-1.10;99.90;;;-2.05;100.00;98520.53;5037998;28;20518;-45
2022/01/15 01:43:59;;;;;;;33.22;17.80;;;-1.10;99.90;;;-2.06;100.00;98520.47;5035930;28;21164;-47
2022/01/15 01:48:53;;;;;;;30.77;16.20;;;-1.10;99.90;;;-2.11;100.00;98523.81;5043138;28;20052;-48
2022/01/15 01:51:35;;;;;;;33.25;17.15;;;-1.20;99.90;;;-2.16;100.00;98516.75;5041306;28;20112;-44
2022/01/15 01:54:04;;;;;;;28.58;16.95;;;-1.20;99.90;;;-2.19;100.00;98517.53;5023879;28;20410;-45
2022/01/15 01:56:31;;;;;;;32.38;17.02;;;-1.20;99.90;;;-2.19;100.00;98521.81;5043261;28;20029;-45
2022/01/15 01:58:57;;;;;;;34.33;18.00;;;-1.20;99.90;;;-2.20;100.00;98520.94;5040925;28;20106;-45
2022/01/15 02:01:24;;;;;;;30.85;16.60;;;-1.30;99.90;;;-2.24;100.00;98523.38;5039566;28;20044;-44
2022/01/15 02:03:50;;;;;;;32.28;16.65;;;-1.30;99.90;;;-2.31;100.00;98522.31;5040152;28;20311;-47
2022/01/15 02:06:17;;;;;;;29.95;17.20;;;-1.30;99.90;;;-2.32;100.00;98523.13;5036133;28;20037;-44
2022/01/15 02:08:45;;;;;;;34.97;17.70;;;-1.30;99.90;;;-2.37;100.00;98516.94;5040250;28;20079;-45
2022/01/15 02:11:11;;;;;;;28.70;16.73;;;-1.40;99.90;;;-2.41;100.00;98512.50;5040712;28;20803;-47
2022/01/15 02:13:44;;;;;;;28.63;16.33;;;-1.50;99.90;;;-2.42;100.00;98513.31;5042756;28;20078;-47
2022/01/15 02:16:11;;;;;;;31.08;15.98;;;-1.50;99.90;;;-2.45;100.00;98524.44;5034392;28;20036;-45
2022/01/15 02:18:37;;;;;;;26.63;14.70;;;-1.50;99.90;;;-2.44;100.00;98510.72;5035106;28;20029;-48
2022/01/15 02:23:44;;;;;;;24.80;14.60;;;-1.50;99.90;;;-2.44;100.00;98502.97;5034838;28;20032;-47
2022/01/15 02:26:39;;;;;;;25.63;14.63;;;-1.50;99.90;;;-2.45;100.00;98502.91;5034605;28;20033;-44
2022/01/15 02:29:07;;;;;;;23.27;13.55;;;-1.50;99.90;;;-2.46;100.00;98488.22;5018716;28;20041;-47
2022/01/15 02:31:34;;;;;;;25.58;14.43;;;-1.50;99.90;;;-2.47;100.00;98496.81;5035005;28;20028;-45
2022/01/15 02:34:03;;;;;;;26.17;14.95;;;-1.50;99.90;;;-2.49;100.00;98491.59;5038778;28;20039;-43
2022/01/15 02:36:32;;;;;;;28.20;15.82;;;-1.50;99.90;;;-2.46;100.00;98490.81;5040633;28;20035;-45
2022/01/15 02:38:59;;;;;;;26.88;15.93;;;-1.60;99.90;;;-2.46;100.00;98481.34;5037690;28;20110;-42
2022/01/15 02:41:35;;;;;;;27.40;15.93;;;-1.50;99.90;;;-2.45;100.00;98484.81;5041358;28;20439;-45
2022/01/15 02:44:03;;;;;;;29.15;15.55;;;-1.50;99.90;;;-2.46;100.00;98478.75;5040822;28;20033;-46
2022/01/15 02:49:02;;;;;;;27.30;15.27;;;-1.50;99.90;;;-2.43;100.00;98480.59;5039835;28;20029;-44
2022/01/15 02:51:34;;;;;;;26.20;14.93;;;-1.50;99.90;;;-2.42;100.00;98478.06;5040241;28;20028;-45
2022/01/15 02:54:02;;;;;;;27.90;14.75;;;-1.50;99.90;;;-2.45;100.00;98467.63;5041146;28;20343;-47
2022/01/15 02:56:35;;;;;;;26.63;14.13;;;-1.50;99.90;;;-2.44;100.00;98469.38;5041751;28;20065;-44
2022/01/15 02:59:04;;;;;;;22.38;14.27;;;-1.50;99.90;;;-2.43;100.00;98473.69;5039731;28;20061;-44
2022/01/15 03:01:30;;;;;;;25.30;14.57;;;-1.50;99.90;;;-2.43;100.00;98472.84;5038228;28;20090;-44
2022/01/15 03:03:56;;;;;;;24.70;15.00;;;-1.50;99.90;;;-2.44;100.00;98469.38;5042075;28;20471;-47
2022/01/15 03:06:22;;;;;;;25.88;15.48;;;-1.50;99.90;;;-2.44;100.00;98471.06;5040142;28;20033;-45
2022/01/15 03:08:51;;;;;;;28.88;16.05;;;-1.50;99.90;;;-2.45;100.00;98466.75;5041404;28;20111;-44
2022/01/15 03:11:18;;;;;;;30.10;15.88;;;-1.50;99.90;;;-2.46;100.00;98455.50;5039114;28;20042;-46
2022/01/15 03:13:45;;;;;;;28.08;14.85;;;-1.50;99.90;;;-2.50;100.00;98449.38;5039369;28;20402;-45
2022/01/15 03:16:19;;;;;;;30.63;15.52;;;-1.50;99.90;;;-2.48;100.00;98453.72;5039081;28;20112;-46
2022/01/15 03:18:45;;;;;;;28.10;15.27;;;-1.50;99.90;;;-2.55;100.00;98429.41;5040816;28;20037;-46
2022/01/15 03:21:11;;;;;;;27.02;15.48;;;-1.50;99.90;;;-2.51;100.00;98441.59;5040037;28;20037;-45
2022/01/15 03:23:38;;;;;;;29.83;15.75;;;-1.50;99.90;;;-2.52;100.00;98443.28;5038989;28;20040;-45
2022/01/15 03:26:07;;;;;;;31.40;16.05;;;-1.50;99.90;;;-2.53;100.00;98432.91;5042390;28;20478;-46
2022/01/15 03:28:34;;;;;;;27.95;16.25;;;-1.50;99.90;;;-2.53;100.00;98431.22;5042569;28;20391;-45
2022/01/15 03:31:00;;;;;;;32.35;16.52;;;-1.60;99.90;;;-2.54;100.00;98437.19;5043002;28;20528;-43
2022/01/15 03:33:26;;;;;;;28.92;15.93;;;-1.60;99.90;;;-2.48;100.00;98438.22;5045699;28;20367;-43
2022/01/15 03:35:52;;;;;;;28.30;16.05;;;-1.50;99.90;;;-2.53;100.00;98433.78;5045396;28;20195;-45
2022/01/15 03:38:17;;;;;;;29.73;15.60;;;-1.50;99.90;;;-2.45;100.00;98430.56;5042454;28;20032;-45
2022/01/15 03:40:43;;;;;;;24.40;14.68;;;-1.50;99.90;;;-2.46;100.00;98432.25;5044377;28;20040;-46
2022/01/15 03:43:09;;;;;;;30.70;15.45;;;-1.50;99.90;;;-2.46;100.00;98423.63;5041896;28;20025;-45
2022/01/15 03:45:35;;;;;;;27.17;14.70;;;-1.50;99.90;;;-2.45;100.00;98425.41;5045856;28;20025;-43
2022/01/15 03:48:01;;;;;;;27.58;14.82;;;-1.50;99.90;;;-2.48;100.00;98422.72;5041804;28;20017;-44
2022/01/15 03:50:27;;;;;;;25.08;14.93;;;-1.50;99.90;;;-2.46;100.00;98416.75;5040150;28;20040;-45
2022/01/15 03:52:54;;;;;;;25.67;14.98;;;-1.50;99.90;;;-2.45;100.00;98412.50;5045625;28;20561;-42
2022/01/15 03:55:21;;;;;;;24.38;14.45;;;-1.50;99.90;;;-2.45;100.00;98415.06;5044091;28;20339;-43
2022/01/15 03:57:47;;;;;;;25.95;14.30;;;-1.50;99.90;;;-2.45;100.00;98410.78;5043374;28;20056;-46
2022/01/15 04:00:18;;;;;;;23.80;13.48;;;-1.50;99.90;;;-2.45;100.00;98412.50;5042271;28;20047;-45
2022/01/15 04:02:44;;;;;;;23.98;13.85;;;-1.50;99.90;;;-2.44;100.00;98411.63;5045403;28;20025;-46
2022/01/15 04:05:11;;;;;;;23.70;13.50;;;-1.50;99.90;;;-2.47;100.00;98412.44;5044186;28;20656;-45
2022/01/15 04:07:37;;;;;;;27.35;13.82;;;-1.50;99.90;;;-2.48;100.00;98408.09;5043271;28;20497;-45
2022/01/15 04:10:07;;;;;;;24.42;12.95;;;-1.50;99.90;;;-2.50;100.00;98410.63;5043761;28;20033;-47
2022/01/15 04:12:33;;;;;;;28.05;14.35;;;-1.50;99.90;;;-2.53;100.00;98405.38;5043958;28;20029;-46
2022/01/15 04:14:59;;;;;;;27.50;14.50;;;-1.60;99.90;;;-2.54;100.00;98413.09;5041875;28;20059;-46
2022/01/15 04:17:26;;;;;;;23.90;13.40;;;-1.50;99.90;;;-2.59;100.00;98412.06;5043120;28;20116;-42
2022/01/15 04:19:52;;;;;;;26.05;14.27;;;-1.60;99.90;;;-2.60;100.00;98418.94;5044841;28;20123;-46
2022/01/15 04:22:18;;;;;;;23.90;13.73;;;-1.60;99.90;;;-2.66;100.00;98403.22;5044160;28;20072;-46
2022/01/15 04:24:44;;;;;;;24.10;14.07;;;-1.60;99.90;;;-2.66;100.00;98410.97;5043150;28;20029;-43
2022/01/15 04:27:10;;;;;;;29.10;14.07;;;-1.70;99.90;;;-2.65;100.00;98417.03;5042390;28;20059;-47
2022/01/15 04:29:36;;;;;;;27.10;14.18;;;-1.70;99.90;;;-2.77;100.00;98405.47;5052488;23;20045;-89
2022/01/15 04:32:02;;;;;;;23.80;14.27;;;-1.70;99.90;;;-2.90;100.00;98382.69;5030525;28;20033;-89
2022/01/15 04:34:30;;;;;;;30.65;14.63;;;-1.70;99.90;;;-2.90;100.00;98380.97;5026754;28;20503;-89
2022/01/15 04:37:06;;;;;;;21.15;13.48;;;-1.70;99.90;;;-2.70;100.00;98415.16;5012690;28;20024;-90
2022/01/15 04:39:31;;;;;;;25.33;14.07;;;-1.70;99.90;;;-3.05;100.00;98353.78;5030661;28;20305;-89
2022/01/15 04:41:57;;;;;;;27.05;15.07;;;-1.80;99.90;;;-2.98;100.00;98363.47;5012399;28;20025;-89
2022/01/15 04:44:23;;;;;;;23.38;13.90;;;-1.80;99.90;;;-3.10;100.00;98351.94;5040362;28;20561;-89
2022/01/15 04:46:49;;;;;;;29.92;15.55;;;-1.70;99.90;;;-2.88;100.00;98389.63;5026950;28;20021;-87
2022/01/15 04:49:14;;;;;;;25.80;14.88;;;-1.80;99.90;;;-3.09;100.00;98357.97;5022141;28;20075;-88
2022/01/15 04:51:40;;;;;;;28.98;15.35;;;-1.80;99.90;;;-3.01;100.00;98369.44;5022818;28;20079;-89
2022/01/15 04:54:07;;;;;;;29.88;15.52;;;-1.80;99.90;;;-3.19;100.00;98336.19;5013167;28;20524;-89
2022/01/15 04:56:32;;;;;;;29.88;15.80;;;-1.80;99.90;;;-3.16;100.00;98345.69;5009142;28;20025;-89
2022/01/15 04:58:58;;;;;;;24.00;14.88;;;-1.90;99.90;;;-2.92;100.00;98387.78;5012273;28;20363;-89
2022/01/15 05:01:24;;;;;;;25.92;15.13;;;-1.80;99.90;;;-2.95;100.00;98384.25;5011053;28;20024;-89
2022/01/15 05:03:49;;;;;;;27.65;14.60;;;-1.80;99.90;;;-3.01;100.00;98382.34;5010415;28;21035;-89
2022/01/15 05:06:16;;;;;;;28.23;15.20;;;-1.90;99.90;;;-2.81;100.00;98410.50;5008378;28;20063;-89
2022/01/15 05:08:44;;;;;;;29.02;14.80;;;-1.80;99.90;;;-2.91;100.00;98405.06;5011526;28;20027;-89
2022/01/15 05:11:21;;;;;;;33.45;15.98;;;-1.90;99.90;;;-2.89;100.00;98415.41;5013727;28;20033;-88
2022/01/15 05:13:46;;;;;;;25.17;14.23;;;-1.90;99.90;;;-3.40;100.00;98341.50;5013067;28;20052;-88
2022/01/15 05:16:12;;;;;;;28.52;15.48;;;-1.90;99.90;;;-3.23;100.00;98364.41;5010102;28;20059;-88
2022/01/15 05:18:38;;;;;;;31.67;15.50;;;-1.90;99.90;;;-3.20;100.00;98385.16;5027531;28;21146;-88
2022/01/15 05:21:03;;;;;;;30.00;15.75;;;-2.00;99.90;;;-3.12;100.00;98389.75;5017881;28;20033;-88
2022/01/15 05:23:29;;;;;;;30.13;15.05;;;-2.00;99.90;;;-3.25;100.00;98382.41;5008638;28;20029;-89
2022/01/15 05:25:55;;;;;;;25.13;13.98;;;-2.00;99.90;;;-3.20;100.00;98382.56;5008325;28;20032;-90
2022/01/15 05:28:21;;;;;;;26.50;15.45;;;-2.00;99.90;;;-3.18;100.00;98393.81;5013546;28;20036;-89
2022/01/15 05:30:46;;;;;;;25.83;14.57;;;-2.00;99.90;;;-3.02;100.00;98419.28;5031732;28;20024;-89
2022/01/15 05:33:12;;;;;;;30.75;15.35;;;-2.00;99.90;;;-3.17;100.00;98391.28;5010719;28;20025;-89
2022/01/15 05:35:38;;;;;;;25.65;14.30;;;-2.00;99.90;;;-3.19;100.00;98381.75;5006848;28;20021;-89
2022/01/15 05:38:03;;;;;;;27.27;14.90;;;-2.00;99.90;;;-3.31;100.00;98370.19;5009826;28;20156;-90
2022/01/15 05:40:29;;;;;;;29.60;15.25;;;-2.10;99.90;;;-3.28;100.00;98377.16;5039257;28;20028;-88
2022/01/15 05:42:55;;;;;;;27.85;15.23;;;-2.10;99.90;;;-3.11;100.00;98411.25;5008802;28;20037;-88
2022/01/15 05:45:21;;;;;;;28.23;14.98;;;-2.10;99.90;;;-3.67;100.00;98323.41;5007132;28;20033;-88
2022/01/15 05:47:48;;;;;;;31.83;15.60;;;-2.10;99.90;;;-3.45;100.00;98368.84;5007723;28;20048;-87
2022/01/15 05:50:14;;;;;;;29.42;15.77;;;-2.10;99.90;;;-3.30;100.00;98397.75;5018481;28;20037;-88
2022/01/15 05:52:40;;;;;;;26.75;14.13;;;-2.10;99.90;;;-3.42;100.00;98384.44;5004029;28;20029;-87
2022/01/15 05:55:07;;;;;;;24.75;15.00;;;-2.10;99.90;;;-3.61;100.00;98358.81;5022728;28;20368;-88
2022/01/15 05:57:33;;;;;;;25.38;14.25;;;-2.20;99.90;;;-3.65;100.00;98353.56;5025137;28;20042;-87
2022/01/15 05:59:58;;;;;;;26.65;15.27;;;-2.20;99.90;;;-3.41;100.00;98377.56;5015365;28;20036;-87
2022/01/15 06:02:24;;;;;;;24.65;14.82;;;-2.20;99.90;;;-3.32;100.00;98401.97;5005963;28;20074;-88
2022/01/15 06:04:50;;;;;;;26.25;14.52;;;-2.20;99.90;;;-3.15;100.00;98419.72;5005026;28;20037;-88
2022/01/15 06:07:16;;;;;;;25.30;14.90;;;-2.20;99.90;;;-3.46;100.00;98367.97;5006192;28;20017;-87
2022/01/15 06:09:42;;;;;;;30.27;14.70;;;-2.20;99.90;;;-3.47;100.00;98373.06;5008811;28;20029;-87
2022/01/15 06:12:09;;;;;;;25.58;14.35;;;-2.20;99.90;;;-3.33;100.00;98400.22;5009652;28;20032;-87
2022/01/15 06:14:35;;;;;;;24.73;14.80;;;-2.20;99.90;;;-3.34;100.00;98398.47;5023627;28;20493;-88
2022/01/15 06:17:03;;;;;;;26.77;13.88;;;-2.20;99.90;;;-3.28;100.00;98403.81;5007014;28;20125;-87
2022/01/15 06:19:29;;;;;;;28.73;14.85;;;-2.20;99.90;;;-3.48;100.00;98367.03;5008136;28;20387;-88
2022/01/15 06:21:56;;;;;;;25.42;14.23;;;-2.20;99.90;;;-3.55;100.00;98366.75;5007567;28;20099;-88
2022/01/15 06:24:22;;;;;;;26.98;14.98;;;-2.20;99.90;;;-3.36;100.00;98404.38;5016898;28;20473;-89
2022/01/15 06:26:48;;;;;;;24.63;14.38;;;-2.30;99.90;;;-3.50;100.00;98371.28;5002932;28;20033;-89
2022/01/15 06:29:14;;;;;;;23.73;14.18;;;-2.30;99.90;;;-3.55;100.00;98375.41;5023390;28;20166;-89
2022/01/15 06:31:40;;;;;;;26.13;15.10;;;-2.30;99.90;;;-3.39;100.00;98405.19;5007582;28;20033;-89
2022/01/15 06:34:05;;;;;;;24.50;14.10;;;-2.30;99.90;;;-3.42;100.00;98399.91;5007137;28;20040;-89
2022/01/15 06:36:31;;;;;;;24.15;14.10;;;-2.30;99.90;;;-3.54;100.00;98386.59;5019968;28;20029;-89
2022/01/15 06:39:00;;;;;;;26.55;14.45;;;-2.30;99.90;;;-3.75;100.00;98359.25;5006175;28;20037;-89
2022/01/15 06:41:26;;;;;;;23.85;14.50;;;-2.30;99.90;;;-3.66;100.00;98375.03;5004183;28;20064;-89
2022/01/15 06:43:51;;;;;;;26.73;14.30;;;-2.40;99.90;;;-3.74;100.00;98352.38;5019654;28;20061;-88
2022/01/15 06:46:17;;;;;;;27.33;14.23;;;-2.40;99.90;;;-3.74;100.00;98355.81;5021200;28;20416;-89
2022/01/15 06:48:43;;;;;;;25.42;14.40;;;-2.40;99.90;;;-3.90;100.00;98332.91;5027125;28;20067;-88
2022/01/15 06:51:09;;;;;;;23.52;13.77;;;-2.40;99.90;;;-3.94;100.00;98329.34;5017607;28;20147;-89
2022/01/15 06:53:34;;;;;;;24.80;14.23;;;-2.40;99.90;;;-3.76;100.00;98359.19;5022529;28;20045;-89
2022/01/15 06:56:00;;;;;;;24.80;13.85;;;-2.40;99.90;;;-3.59;100.00;98375.22;5008573;28;20060;-90
2022/01/15 06:58:26;;;;;;;22.15;13.77;;;-2.40;99.90;;;-3.63;100.00;98374.25;5019439;28;20037;-89
2022/01/15 07:00:55;;;;;;;28.73;14.35;;;-2.40;99.90;;;-3.95;100.00;98311.25;5007131;28;20028;-89
2022/01/15 07:03:20;;;;;;;20.55;12.85;;;-2.40;99.90;;;-3.74;100.00;98345.50;5019792;28;20033;-89
2022/01/15 07:05:46;;;;;;;24.33;14.15;;;-2.40;99.90;;;-3.68;100.00;98352.56;5031630;28;20036;-88
2022/01/15 07:08:12;;;;;;;27.65;14.15;;;-2.40;99.90;;;-3.70;100.00;98354.22;5012091;28;20478;-88
2022/01/15 07:10:41;;;;;;;25.63;13.63;;;-2.40;99.90;;;-3.39;100.00;98401.69;5014237;28;20052;-89
2022/01/15 07:13:08;;;;;;;22.73;13.95;;;-2.40;99.90;;;-3.35;100.00;98396.72;5010708;28;20023;-88
2022/01/15 07:15:34;;;;;;;24.70;14.30;;;-2.30;99.90;;;-3.53;100.00;98363.44;5024183;28;20049;-89
2022/01/15 07:18:00;;;;;;;23.70;13.60;;;-2.40;99.90;;;-3.64;100.00;98341.56;5010775;28;20186;-89
2022/01/15 07:20:27;;;;;;;25.10;14.00;;;-2.40;99.90;;;-3.78;100.00;98315.31;5026923;28;20516;-90
2022/01/15 07:22:54;;;;;;;25.52;13.15;;;-2.30;99.90;;;-4.01;100.00;98275.84;5007838;28;20527;-89
2022/01/15 07:25:35;;;;;;;24.55;14.07;;;-2.30;99.90;;;-3.94;100.00;98288.13;5009810;28;20053;-89
2022/01/15 07:28:04;;;;;;;21.98;12.93;;;-2.30;99.90;;;-3.92;100.00;98273.59;5009396;28;20097;-90
2022/01/15 07:30:34;;;;;;;25.60;13.73;;;-2.20;99.90;;;-3.94;100.00;98267.50;5007661;28;20036;-89
2022/01/15 07:33:08;;;;;;;28.58;15.10;;;-2.20;99.90;;;-3.52;100.00;98341.09;5026898;28;20112;-89
2022/01/15 07:35:36;;;;;;;25.60;13.50;;;-2.20;99.90;;;-3.88;100.00;98269.41;5008344;28;20045;-89
2022/01/15 07:38:05;;;;;;;24.25;13.48;;;-2.20;99.90;;;-3.33;100.00;98353.78;5009673;28;20056;-90
2022/01/15 07:41:12;;;;;;;27.92;13.68;;;-2.20;99.90;;;-3.74;100.00;98288.78;5013015;28;20045;-90
2022/01/15 07:48:21;;;;;;;;;;;;;;;;;;;;;
2022/01/15 07:51:57;;;;;;;;;;;;;;;;;;;;;
2022/01/15 07:55:51;;;;;;;23.45;13.48;;;-2.00;99.90;;;-3.43;100.00;98302.69;4999758;28;20388;-91
2022/01/15 08:03:03;;;;;;;;;;;;;;;;;;;;;
2022/01/15 08:06:19;;;;;;;26.30;14.05;;;-1.90;99.90;;;-2.86;100.00;98371.63;4942102;29;20039;-89
2022/01/15 08:09:29;;;;;;;27.88;14.23;;;-1.80;99.90;;;-3.44;100.00;98264.84;4948947;28;20205;-90
2022/01/15 08:15:03;;;;;;;25.27;14.13;;;-1.70;99.90;;;-3.27;100.00;98301.50;5037373;28;20551;-89
2022/01/15 08:17:35;;;;;;;27.52;13.85;;;-1.80;99.90;;;-3.62;100.00;98225.56;5013053;28;20032;-89
2022/01/15 08:20:13;;;;;;;28.88;14.88;;;-1.70;99.90;;;-3.21;100.00;98293.06;5022881;28;20032;-89
2022/01/15 08:22:55;;;;;;;23.67;13.85;;;-1.80;99.90;;;-3.40;100.00;98255.50;5009141;28;20033;-90
2022/01/15 08:25:42;;;;;;;27.17;14.35;;;-1.70;99.90;;;-3.36;100.00;98241.88;5019876;28;20357;-89
2022/01/15 08:28:19;;;;;;;25.20;13.57;;;-1.70;99.90;;;-3.22;100.00;98270.69;5011425;28;20032;-89
2022/01/15 08:31:11;;;;;;;;;;;;;;;;;;;;;
2022/01/15 08:33:54;;;;;;;;;;;-1.60;99.90;;;-2.71;100.00;98337.66;5041981;28;20067;-89
2022/01/15 08:36:20;;;;;;;24.55;13.43;;;-1.40;99.90;;;-3.13;100.00;98258.06;5027295;28;19916;-90
2022/01/15 08:39:10;;;;;;;26.27;14.52;;;-1.40;99.90;;;-3.14;100.00;98235.66;5020137;28;20044;-90
2022/01/15 08:42:17;;;;;;;;;;;;;;;;;;;;;
2022/01/15 08:44:59;;;;;;;26.55;14.43;;;-1.30;99.90;;;-2.98;100.00;98237.91;5029316;28;20029;-90
2022/01/15 08:56:32;;;;;;;;;;;;;;;;;;;;;
2022/01/15 08:59:30;;;;;;;21.42;13.80;;;-1.00;99.90;;;-1.94;100.00;98355.38;4982793;28;20060;-92
2022/01/15 09:06:45;;;;;;;24.25;13.75;;;-0.90;99.90;;;-1.85;100.00;98331.50;5041773;28;20083;-91
2022/01/15 09:09:17;;;;;;;24.88;14.50;;;-0.80;99.90;;;-2.25;100.00;98260.63;5013461;28;20513;-90
2022/01/15 09:11:53;;;;;;;26.15;14.65;;;-0.60;99.90;;;-2.25;100.00;98237.38;5034061;28;20040;-90
2022/01/15 09:14:19;;;;;;;26.30;15.05;;;-0.60;99.90;;;-1.50;100.00;98350.53;5006830;23;20048;-86
2022/01/15 09:16:44;;;;;;;24.45;14.38;;;-0.60;99.90;;;-1.60;100.00;98330.44;4998437;28;20120;-85
2022/01/15 09:19:10;;;;;;;25.10;15.50;;;-0.50;99.90;;;-1.44;100.00;98355.00;4985253;28;20605;-85
2022/01/15 09:21:36;;;;;;;25.20;15.48;;;-0.50;99.90;;;-1.45;100.00;98355.84;4980521;28;20018;-85
2022/01/15 09:24:03;;;;;;;25.55;14.80;;;-0.50;99.90;;;-1.53;100.00;98350.47;4984855;28;20440;-85
2022/01/15 09:30:11;;;;;;;26.73;15.43;;;-0.50;99.90;;;-1.62;100.00;98347.63;4997190;28;20024;-85
2022/01/15 09:32:07;;;;;;;24.02;15.75;;;-0.60;99.90;;;-1.65;100.00;98338.09;4988006;28;20057;-85
2022/01/15 09:34:34;;;;;;;26.95;15.00;;;-0.60;99.90;;;-1.79;100.00;98317.03;4980927;28;20108;-85
2022/01/15 09:37:05;;;;;;;26.05;16.13;;;-0.60;99.90;;;-1.56;100.00;98351.25;5009540;28;20033;-85
2022/01/15 09:39:31;;;;;;;27.00;15.60;;;-0.60;99.90;;;-1.48;100.00;98348.88;4985129;28;21669;-84
2022/01/15 09:41:57;;;;;;;24.33;15.57;;;-0.50;99.90;;;-1.42;100.00;98359.41;4967849;28;20022;-85
2022/01/15 09:44:25;;;;;;;28.02;15.50;;;-0.50;99.90;;;-1.41;100.00;98355.09;4994751;28;20594;-85
2022/01/15 09:46:52;;;;;;;30.58;16.77;;;-0.40;99.90;;;-1.47;100.00;98352.31;4991232;28;20737;-85
2022/01/15 09:49:22;;;;;;;29.80;16.35;;;-0.50;99.90;;;-1.45;100.00;98356.72;4999550;28;20650;-85
2022/01/15 09:51:48;;;;;;;25.02;15.45;;;-0.40;99.90;;;-1.40;100.00;98349.06;5006362;28;20320;-84
2022/01/15 09:54:18;;;;;;;28.42;16.20;;;-0.40;99.90;;;-1.47;100.00;98324.75;4995404;28;20033;-85
2022/01/15 09:56:46;;;;;;;26.95;15.82;;;-0.40;99.90;;;-1.42;100.00;98310.22;4992873;28;20061;-85
2022/01/15 09:59:13;;;;;;;26.60;15.73;;;-0.30;99.90;;;-1.23;100.00;98339.16;4978916;28;20030;-85
2022/01/15 10:01:39;;;;;;;27.42;17.25;;;-0.30;99.90;;;-1.20;100.00;98336.63;4974351;28;20385;-85
2022/01/15 10:04:04;;;;;;;28.25;16.48;;;-0.20;99.90;;;-1.30;100.00;98314.81;4988033;28;20041;-85
2022/01/15 10:06:30;;;;;;;27.25;16.67;;;-0.20;99.90;;;-1.02;100.00;98342.25;4977122;28;20022;-84
2022/01/15 10:09:04;;;;;;;30.40;16.80;;;-0.10;99.90;;;-0.98;100.00;98333.72;4975024;28;20053;-85
2022/01/15 10:11:43;;;;;;;28.95;16.27;;;0.00;99.90;;;-0.85;100.00;98346.97;4974932;28;20696;-85
2022/01/15 10:14:38;;;;;;;26.70;16.50;;;0.00;99.90;;;-0.77;100.00;98341.13;4983961;28;20042;-86
2022/01/15 10:17:33;;;;;;;29.10;15.95;;;0.10;99.90;;;-0.76;100.00;98326.44;4990224;28;20543;-85
2022/01/15 10:20:01;;;;;;;28.17;16.98;;;0.20;99.90;;;-0.69;100.00;98325.75;4990544;28;20111;-86
2022/01/15 10:22:31;;;;;;;30.23;17.58;;;0.20;99.90;;;-1.14;100.00;98234.94;4994094;28;20501;-86
2022/01/15 10:25:00;;;;;;;26.73;17.05;;;0.30;99.90;;;-0.54;100.00;98313.97;4991441;28;20036;-85
2022/01/15 10:27:32;;;;;;;26.02;16.48;;;0.30;99.90;;;-0.56;100.00;98311.34;4991240;28;20033;-86
2022/01/15 10:30:28;;;;;;;34.47;17.70;;;0.40;99.90;;;-0.40;100.00;98318.59;4985450;28;20504;-85
2022/01/15 10:33:09;;;;;;;30.52;17.02;;;0.50;99.90;;;-0.37;100.00;98303.97;4988840;28;20057;-85
2022/01/15 10:35:43;;;;;;;27.33;16.95;;;0.50;99.90;;;-0.35;100.00;98313.50;4994064;28;20058;-88
2022/01/15 10:38:12;;;;;;;33.88;19.70;;;0.60;99.90;;;-0.35;100.00;98310.91;4994985;28;20041;-85
2022/01/15 10:40:44;;;;;;;27.20;17.20;;;0.60;99.90;;;-0.27;100.00;98306.78;4989822;28;20497;-85
2022/01/15 10:43:13;;;;;;;29.90;17.85;;;0.60;99.90;;;-0.29;100.00;98311.03;4990644;28;20399;-85
2022/01/15 10:45:52;;;;;;;28.20;17.70;;;0.70;99.90;;;-0.23;100.00;98298.22;4988860;28;20486;-85
2022/01/15 10:48:33;;;;;;;28.13;17.42;;;0.70;99.90;;;-0.25;100.00;98273.97;4990531;28;20030;-85
2022/01/15 10:51:05;;;;;;;28.38;16.95;;;0.70;99.90;;;-0.15;100.00;98287.13;5005039;28;20034;-85
2022/01/15 10:53:46;;;;;;;27.23;17.50;;;0.80;99.90;;;-0.24;100.00;98257.56;4986910;28;20084;-85
2022/01/15 10:56:15;;;;;;;27.85;16.95;;;0.80;99.90;;;-0.03;100.00;98270.06;5005626;28;20030;-85
2022/01/15 10:58:44;;;;;;;31.15;17.08;;;0.90;99.90;;;0.12;100.00;98281.59;4967377;28;20523;-85
2022/01/15 11:01:25;;;;;;;28.58;16.55;;;1.00;99.90;;;0.18;100.00;98280.00;4987283;28;20477;-85
2022/01/15 11:03:51;;;;;;;26.73;17.30;;;1.00;99.90;;;0.25;100.00;98274.91;4988838;28;20568;-86
2022/01/15 11:06:38;;;;;;;27.48;17.25;;;1.10;99.90;;;0.30;100.00;98268.06;4991260;28;20034;-85
2022/01/15 11:09:05;;;;;;;29.30;18.00;;;1.10;99.90;;;0.21;100.00;98258.41;4988941;28;20113;-85
2022/01/15 11:11:32;;;;;;;28.48;17.02;;;1.10;99.90;;;0.25;100.00;98261.94;4992855;28;20030;-86